Time;durP1;ratioP1;P1;durP2;ratioP2;P2;SDS_P1;SDS_P2;PMS_P1;PMS_P2;Temp;Humidity;BMP_temperature;BMP_pressure;BME280_temperature;BME280_humidity;BME280_pressure;Samples;Min_cycle;Max_cycle;Signal;HPM_P1;HPM_P2
2023/12/04 00:00:49;;;;;;;5.78;0.70;;;24.00;99.90;;;;;;5069824;28;20202;-76
2023/12/04 00:03:20;;;;;;;5.00;0.90;;;24.00;99.90;;;;;;5063913;28;20651;-75
2023/12/04 00:05:50;;;;;;;3.10;0.95;;;24.20;99.90;;;;;;5070765;28;20584;-75
2023/12/04 00:08:21;;;;;;;3.40;0.55;;;24.40;99.90;;;;;;5070467;28;20195;-75
2023/12/04 00:10:54;;;;;;;5.18;0.80;;;24.50;99.90;;;;;;5070528;28;20290;-75
2023/12/04 00:13:23;;;;;;;4.60;0.50;;;24.50;99.90;;;;;;5070354;28;20684;-75
2023/12/04 00:15:54;;;;;;;2.85;0.73;;;24.50;99.90;;;;;;5070254;28;20213;-75
2023/12/04 00:18:25;;;;;;;4.95;0.50;;;24.60;99.90;;;;;;5069534;28;20685;-76
2023/12/04 00:20:55;;;;;;;2.10;0.55;;;24.70;99.90;;;;;;5070943;28;20203;-75
2023/12/04 00:23:26;;;;;;;4.00;0.68;;;24.70;99.90;;;;;;5070035;28;20207;-76
2023/12/04 00:25:59;;;;;;;3.85;0.70;;;24.80;99.90;;;;;;5070079;28;20222;-76
2023/12/04 00:28:30;;;;;;;2.08;0.60;;;24.80;99.90;;;;;;5070660;28;20196;-76
2023/12/04 00:31:01;;;;;;;2.80;0.77;;;24.60;99.90;;;;;;5070736;28;20273;-76
2023/12/04 00:33:32;;;;;;;3.17;0.95;;;24.50;99.90;;;;;;5070534;28;20192;-76
2023/12/04 00:36:02;;;;;;;2.47;0.70;;;24.60;99.90;;;;;;5087421;28;20232;-77
2023/12/04 00:38:33;;;;;;;1.45;0.70;;;24.80;99.90;;;;;;5100692;28;20199;-76
2023/12/04 00:41:06;;;;;;;2.05;0.68;;;24.80;99.90;;;;;;5094057;28;20199;-76
2023/12/04 00:43:37;;;;;;;2.40;0.80;;;25.10;99.90;;;;;;5090509;28;20209;-76
2023/12/04 00:46:08;;;;;;;2.40;0.70;;;25.40;99.90;;;;;;5090205;28;20546;-76
2023/12/04 00:48:38;;;;;;;3.55;0.90;;;25.50;99.90;;;;;;5090174;28;20290;-76
2023/12/04 00:51:10;;;;;;;2.95;0.85;;;25.70;99.90;;;;;;5076355;28;20202;-76
2023/12/04 00:53:41;;;;;;;2.17;0.50;;;25.90;99.90;;;;;;5075986;28;20200;-76
2023/12/04 00:56:14;;;;;;;2.67;0.50;;;25.90;99.90;;;;;;5090248;28;20196;-76
2023/12/04 00:58:45;;;;;;;4.55;0.77;;;25.70;99.90;;;;;;5090994;28;20202;-76
2023/12/04 01:01:16;;;;;;;2.25;0.68;;;25.50;99.90;;;;;;5058478;28;20214;-76
2023/12/04 01:03:46;;;;;;;1.40;0.63;;;25.70;99.90;;;;;;5050245;28;20211;-76
2023/12/04 01:06:24;;;;;;;3.75;0.63;;;25.80;99.90;;;;;;5050303;28;20201;-76
2023/12/04 01:08:56;;;;;;;3.97;0.50;;;25.80;99.90;;;;;;5049762;28;20250;-76
2023/12/04 01:11:29;;;;;;;5.53;0.90;;;25.80;99.90;;;;;;5063971;28;20266;-76
2023/12/04 01:14:00;;;;;;;2.20;0.70;;;25.80;99.90;;;;;;5071856;28;20572;-76
2023/12/04 01:16:30;;;;;;;4.57;0.68;;;25.90;99.90;;;;;;5072590;28;20196;-76
2023/12/04 01:19:01;;;;;;;3.13;0.70;;;26.10;99.90;;;;;;5069916;28;20192;-76
2023/12/04 01:21:32;;;;;;;3.30;0.65;;;26.20;99.90;;;;;;5069812;28;20192;-76
2023/12/04 01:24:03;;;;;;;1.65;0.73;;;26.20;99.90;;;;;;5069579;28;20654;-76
2023/12/04 01:26:36;;;;;;;3.40;0.75;;;26.00;99.90;;;;;;5069693;28;20315;-76
2023/12/04 01:29:06;;;;;;;1.60;0.70;;;25.90;99.90;;;;;;5089396;28;20227;-76
2023/12/04 01:31:37;;;;;;;2.75;0.65;;;26.10;99.90;;;;;;5093574;28;20196;-75
2023/12/04 01:34:08;;;;;;;4.45;0.70;;;26.20;99.90;;;;;;5093242;28;20203;-76
2023/12/04 01:36:42;;;;;;;3.03;0.60;;;26.20;99.90;;;;;;5093196;28;20222;-75
2023/12/04 01:39:13;;;;;;;3.40;0.65;;;26.10;99.90;;;;;;5093170;28;20199;-75
2023/12/04 01:41:45;;;;;;;2.38;0.55;;;26.00;99.90;;;;;;5093466;28;20687;-76
2023/12/04 01:44:17;;;;;;;2.67;0.60;;;26.10;99.90;;;;;;5092943;28;20200;-76
2023/12/04 01:46:48;;;;;;;2.70;0.60;;;26.30;99.90;;;;;;5093455;28;20222;-75
2023/12/04 01:49:20;;;;;;;7.15;0.73;;;26.30;99.90;;;;;;5094214;28;20229;-75
2023/12/04 01:51:51;;;;;;;1.45;0.55;;;26.40;99.90;;;;;;5105558;28;20195;-75
2023/12/04 01:54:22;;;;;;;1.45;0.70;;;26.70;99.90;;;;;;5097995;28;20191;-76
2023/12/04 01:56:55;;;;;;;2.17;0.50;;;26.90;99.90;;;;;;5095594;28;20282;-76
2023/12/04 01:59:26;;;;;;;2.40;0.50;;;26.90;99.90;;;;;;5080391;28;20286;-76
2023/12/04 02:01:57;;;;;;;4.15;0.80;;;27.10;99.90;;;;;;5073526;28;20206;-76
2023/12/04 02:04:28;;;;;;;2.03;0.55;;;26.90;99.90;;;;;;5072900;28;20200;-76
2023/12/04 02:06:59;;;;;;;2.35;0.45;;;26.90;99.90;;;;;;5072660;28;20583;-75
2023/12/04 02:09:30;;;;;;;2.40;0.50;;;26.90;99.90;;;;;;5072498;28;20220;-75
2023/12/04 02:12:03;;;;;;;1.15;0.57;;;26.90;99.90;;;;;;5072460;28;20279;-76
2023/12/04 02:14:34;;;;;;;3.67;0.68;;;27.00;99.90;;;;;;5072500;28;20196;-75
2023/12/04 02:17:07;;;;;;;2.35;0.43;;;27.20;99.90;;;;;;5072368;28;20196;-76
2023/12/04 02:19:38;;;;;;;1.65;0.40;;;27.20;99.90;;;;;;5072978;28;20569;-76
2023/12/04 02:22:09;;;;;;;3.08;0.63;;;27.20;99.90;;;;;;5072233;28;20184;-75
2023/12/04 02:24:42;;;;;;;2.17;0.50;;;26.90;99.90;;;;;;5072387;28;20196;-76
2023/12/04 02:27:18;;;;;;;1.50;0.38;;;26.90;99.90;;;;;;5072317;28;20290;-76
2023/12/04 02:30:00;;;;;;;0.82;0.40;;;27.10;99.90;;;;;;5072828;28;20311;-76
2023/12/04 02:32:33;;;;;;;2.40;0.50;;;26.70;99.90;;;;;;5072375;28;20273;-75
2023/12/04 02:35:08;;;;;;;0.90;0.32;;;26.50;99.90;;;;;;5073120;28;20287;-75
2023/12/04 02:37:40;;;;;;;5.15;0.50;;;26.50;99.90;;;;;;5072445;28;20290;-76
2023/12/04 02:40:15;;;;;;;4.00;0.55;;;26.50;99.90;;;;;;5071541;28;20203;-76
2023/12/04 02:42:47;;;;;;;3.45;0.68;;;26.40;99.90;;;;;;5073229;28;20630;-76
2023/12/04 02:45:17;;;;;;;1.70;0.40;;;26.40;99.90;;;;;;5074889;28;20246;-76
2023/12/04 02:47:48;;;;;;;1.08;0.30;;;26.40;99.90;;;;;;5072679;28;20681;-76
2023/12/04 02:50:19;;;;;;;3.08;0.50;;;26.30;99.90;;;;;;5072438;28;20223;-76
2023/12/04 02:52:50;;;;;;;1.20;0.25;;;26.20;99.90;;;;;;5072754;28;20206;-76
2023/12/04 02:55:23;;;;;;;1.95;0.40;;;26.20;99.90;;;;;;5072084;28;20207;-76
2023/12/04 02:57:54;;;;;;;1.90;0.68;;;26.10;99.90;;;;;;5071516;28;20287;-76
2023/12/04 03:00:24;;;;;;;3.25;0.35;;;26.30;99.90;;;;;;5071249;28;20195;-76
2023/12/04 03:02:55;;;;;;;0.73;0.30;;;26.50;99.90;;;;;;5071064;28;20200;-76
2023/12/04 03:05:26;;;;;;;0.88;0.40;;;26.60;99.90;;;;;;5081144;28;20689;-76
2023/12/04 03:07:57;;;;;;;2.22;0.47;;;26.60;99.90;;;;;;5084961;28;20202;-76
2023/12/04 03:10:29;;;;;;;1.42;0.22;;;26.70;99.90;;;;;;5084897;28;20690;-76
2023/12/04 03:13:00;;;;;;;2.28;0.32;;;26.80;99.90;;;;;;5072719;28;20206;-76
2023/12/04 03:15:31;;;;;;;0.80;0.30;;;26.80;99.90;;;;;;5071568;28;20283;-76
2023/12/04 03:18:03;;;;;;;1.60;0.57;;;27.10;99.90;;;;;;5071450;28;20282;-76
2023/12/04 03:20:35;;;;;;;1.80;0.57;;;27.20;99.90;;;;;;5071044;28;20279;-76
2023/12/04 03:23:05;;;;;;;1.70;0.40;;;27.20;99.90;;;;;;5071228;28;20620;-76
2023/12/04 03:25:38;;;;;;;1.10;0.38;;;27.10;99.90;;;;;;5071007;28;20661;-75
2023/12/04 03:28:09;;;;;;;1.83;0.55;;;26.90;99.90;;;;;;5071672;28;20207;-75
2023/12/04 03:30:40;;;;;;;2.55;0.52;;;26.70;99.90;;;;;;5070929;28;20212;-76
2023/12/04 03:33:10;;;;;;;1.73;0.38;;;26.50;99.90;;;;;;5070982;28;20839;-77
2023/12/04 03:35:41;;;;;;;3.13;0.45;;;26.60;99.90;;;;;;5071005;28;20559;-76
2023/12/04 03:38:12;;;;;;;1.75;0.45;;;26.70;99.90;;;;;;5070644;28;20606;-77
2023/12/04 03:40:45;;;;;;;1.45;0.43;;;26.90;99.90;;;;;;5071101;28;20677;-76
2023/12/04 03:43:15;;;;;;;1.17;0.40;;;26.90;99.90;;;;;;5071317;28;20203;-76
2023/12/04 03:45:46;;;;;;;2.38;0.50;;;27.00;99.90;;;;;;5070964;28;20357;-77
2023/12/04 03:48:17;;;;;;;4.38;0.40;;;27.10;99.90;;;;;;5071096;28;20299;-77
2023/12/04 03:50:48;;;;;;;0.57;0.30;;;27.20;99.90;;;;;;5070910;28;20223;-77
2023/12/04 03:53:19;;;;;;;2.20;0.47;;;27.00;99.90;;;;;;5070474;28;20566;-77
2023/12/04 03:55:51;;;;;;;1.40;0.40;;;26.70;99.90;;;;;;5064945;28;20199;-76
2023/12/04 03:58:22;;;;;;;3.67;0.40;;;26.60;99.90;;;;;;5050603;28;20323;-77
2023/12/04 04:00:53;;;;;;;1.70;0.40;;;26.80;99.90;;;;;;5059879;28;20292;-76
2023/12/04 04:03:24;;;;;;;0.55;0.20;;;26.70;99.90;;;;;;5070619;28;20202;-75
2023/12/04 04:05:54;;;;;;;2.30;0.35;;;26.90;99.90;;;;;;5070912;28;20202;-77
2023/12/04 04:08:25;;;;;;;0.93;0.38;;;27.00;99.90;;;;;;5070277;28;20235;-76
2023/12/04 04:10:58;;;;;;;1.13;0.40;;;26.90;99.90;;;;;;5070316;28;20228;-76
2023/12/04 04:13:29;;;;;;;2.35;0.30;;;26.80;99.90;;;;;;5070545;28;20202;-76
2023/12/04 04:16:00;;;;;;;0.88;0.10;;;27.00;99.90;;;;;;5071831;28;20677;-77
2023/12/04 04:18:31;;;;;;;0.88;0.40;;;27.00;99.90;;;;;;5071820;28;20286;-76
2023/12/04 04:21:01;;;;;;;1.52;0.47;;;27.30;99.90;;;;;;5070196;28;20263;-76
2023/12/04 04:23:32;;;;;;;0.98;0.20;;;27.20;99.90;;;;;;5070851;28;20735;-76
2023/12/04 04:26:05;;;;;;;2.58;0.40;;;27.00;99.90;;;;;;5070574;28;20687;-76
2023/12/04 04:28:36;;;;;;;0.60;0.30;;;26.90;99.90;;;;;;5070206;28;20279;-76
2023/12/04 04:31:07;;;;;;;1.58;0.30;;;26.90;99.90;;;;;;5070095;28;20220;-76
2023/12/04 04:33:38;;;;;;;0.95;0.28;;;27.00;99.90;;;;;;5070093;28;20283;-76
2023/12/04 04:36:11;;;;;;;1.52;0.47;;;26.90;99.90;;;;;;5070563;28;20283;-76
2023/12/04 04:38:43;;;;;;;2.28;0.52;;;27.00;99.90;;;;;;5070035;28;20211;-76
2023/12/04 04:41:19;;;;;;;2.30;0.40;;;27.30;99.90;;;;;;5069953;28;20224;-76
2023/12/04 04:43:50;;;;;;;4.22;0.50;;;27.20;99.90;;;;;;5070521;28;20195;-76
2023/12/04 04:46:21;;;;;;;1.05;0.43;;;27.20;99.90;;;;;;5070232;28;20390;-76
2023/12/04 04:48:52;;;;;;;2.63;0.38;;;27.30;99.90;;;;;;5070348;28;20195;-76
2023/12/04 04:51:22;;;;;;;1.80;0.38;;;27.60;99.90;;;;;;5070207;28;20242;-76
2023/12/04 04:53:53;;;;;;;1.75;0.40;;;27.90;99.90;;;;;;5068708;28;20282;-75
2023/12/04 04:56:26;;;;;;;0.63;0.20;;;27.70;99.90;;;;;;5060433;28;20518;-76
2023/12/04 04:58:57;;;;;;;0.63;0.20;;;27.90;99.90;;;;;;5069918;28;20280;-76
2023/12/04 05:01:27;;;;;;;1.30;0.30;;;28.10;99.90;;;;;;5069808;28;20287;-76
2023/12/04 05:03:58;;;;;;;1.70;0.30;;;28.30;99.90;;;;;;5071475;28;20725;-77
2023/12/04 05:06:29;;;;;;;0.60;0.28;;;28.30;99.90;;;;;;5073777;28;20662;-76
2023/12/04 05:09:00;;;;;;;1.95;0.32;;;28.50;99.90;;;;;;5074212;28;20234;-76
2023/12/04 05:11:33;;;;;;;1.45;0.20;;;28.50;99.90;;;;;;5073880;28;20230;-77
2023/12/04 05:14:03;;;;;;;0.85;0.30;;;28.30;98.80;;;;;;5065557;28;20306;-77
2023/12/04 05:16:34;;;;;;;1.50;0.30;;;27.80;99.90;;;;;;5071168;28;20220;-77
2023/12/04 05:19:05;;;;;;;1.60;0.30;;;27.90;99.90;;;;;;5073461;28;20650;-77
2023/12/04 05:21:36;;;;;;;1.98;0.30;;;28.00;99.70;;;;;;5072292;28;20224;-77
2023/12/04 05:24:07;;;;;;;2.78;0.50;;;28.10;99.20;;;;;;5073662;28;20241;-78
2023/12/04 05:26:40;;;;;;;0.90;0.30;;;28.20;98.70;;;;;;5087703;28;20238;-78
2023/12/04 05:29:11;;;;;;;2.28;0.30;;;28.30;99.60;;;;;;5094038;28;20206;-78
2023/12/04 05:31:41;;;;;;;1.45;0.35;;;28.70;98.20;;;;;;5093705;28;20313;-78
2023/12/04 05:34:12;;;;;;;1.60;0.47;;;28.90;97.90;;;;;;5093962;28;20195;-78
2023/12/04 05:36:43;;;;;;;2.42;0.40;;;28.90;97.30;;;;;;5096304;28;20218;-78
2023/12/04 05:39:14;;;;;;;1.33;0.50;;;28.90;97.20;;;;;;5099187;28;20209;-78
2023/12/04 05:41:46;;;;;;;1.38;0.60;;;29.10;96.20;;;;;;5095406;28;20195;-79
2023/12/04 05:44:17;;;;;;;2.00;0.60;;;29.40;95.80;;;;;;5092592;28;20286;-79
2023/12/04 05:46:48;;;;;;;0.52;0.38;;;29.70;94.60;;;;;;5093548;28;20723;-78
2023/12/04 05:49:22;;;;;;;0.65;0.30;;;29.80;93.80;;;;;;5089011;28;20292;-77
2023/12/04 05:51:52;;;;;;;1.33;0.30;;;29.60;94.20;;;;;;5074735;28;20231;-77
2023/12/04 05:54:24;;;;;;;2.38;0.30;;;29.60;93.40;;;;;;5056302;28;20215;-77
2023/12/04 05:56:56;;;;;;;2.05;0.40;;;29.20;93.60;;;;;;5067768;28;20200;-77
2023/12/04 05:59:27;;;;;;;0.90;0.30;;;28.90;94.80;;;;;;5073600;28;20214;-78
2023/12/04 06:01:58;;;;;;;0.60;0.30;;;28.90;94.60;;;;;;5073214;28;20253;-78
2023/12/04 06:04:29;;;;;;;0.55;0.20;;;29.00;94.30;;;;;;5073429;28;20243;-77
2023/12/04 06:07:00;;;;;;;0.43;0.20;;;29.30;94.00;;;;;;5072918;28;20283;-78
2023/12/04 06:09:30;;;;;;;0.88;0.20;;;29.20;94.10;;;;;;5072978;28;20671;-79
2023/12/04 06:12:07;;;;;;;1.38;0.20;;;29.40;94.50;;;;;;5072886;28;20246;-78
2023/12/04 06:14:38;;;;;;;0.60;0.20;;;29.40;94.40;;;;;;5072006;28;20210;-78
2023/12/04 06:17:09;;;;;;;1.75;0.20;;;29.20;94.20;;;;;;5072457;28;20593;-78
2023/12/04 06:19:40;;;;;;;1.55;0.20;;;29.10;94.00;;;;;;5072721;28;20218;-77
2023/12/04 06:22:11;;;;;;;1.55;0.30;;;29.10;93.90;;;;;;5072425;28;20206;-76
2023/12/04 06:24:42;;;;;;;0.73;0.25;;;29.40;93.70;;;;;;5072557;28;20203;-76
2023/12/04 06:27:20;;;;;;;0.57;0.20;;;29.30;92.90;;;;;;5072669;28;20284;-76
2023/12/04 06:29:51;;;;;;;0.98;0.25;;;29.10;94.10;;;;;;5073090;28;20191;-77
2023/12/04 06:32:23;;;;;;;1.48;0.35;;;29.40;93.40;;;;;;5072700;28;20282;-77
2023/12/04 06:34:55;;;;;;;1.30;0.43;;;29.40;92.80;;;;;;5073180;28;20199;-76
2023/12/04 06:37:26;;;;;;;0.75;0.30;;;29.10;92.60;;;;;;5072378;28;20232;-77
2023/12/04 06:39:59;;;;;;;0.93;0.20;;;29.50;92.60;;;;;;5072412;28;20200;-76
2023/12/04 06:42:32;;;;;;;1.75;0.30;;;30.00;91.10;;;;;;5072368;28;20572;-77
2023/12/04 06:45:03;;;;;;;0.82;0.30;;;30.30;91.40;;;;;;5072070;28;20308;-76
2023/12/04 06:47:36;;;;;;;0.75;0.30;;;30.80;88.70;;;;;;5074249;28;20625;-77
2023/12/04 06:50:07;;;;;;;0.75;0.30;;;30.90;88.20;;;;;;5082750;28;20202;-75
2023/12/04 06:52:38;;;;;;;1.13;0.30;;;30.50;87.60;;;;;;5078611;28;20231;-76
2023/12/04 06:55:10;;;;;;;0.55;0.30;;;30.90;88.60;;;;;;5076895;28;20191;-76
2023/12/04 06:57:42;;;;;;;1.00;0.22;;;31.00;85.20;;;;;;5072003;28;20203;-76
2023/12/04 07:00:14;;;;;;;0.77;0.20;;;31.10;84.30;;;;;;5071957;28;20196;-76
2023/12/04 07:02:45;;;;;;;1.35;0.40;;;31.10;84.80;;;;;;5071881;28;20239;-76
2023/12/04 07:05:16;;;;;;;0.50;0.30;;;30.80;84.30;;;;;;5071889;28;20206;-76
2023/12/04 07:07:47;;;;;;;1.75;0.30;;;30.50;85.60;;;;;;5072253;28;20196;-75
2023/12/04 07:10:17;;;;;;;1.55;0.40;;;30.90;85.00;;;;;;5071704;28;20219;-76
2023/12/04 07:12:53;;;;;;;3.40;0.50;;;30.90;85.00;;;;;;5071711;28;20425;-76
2023/12/04 07:15:24;;;;;;;1.05;0.30;;;30.90;85.30;;;;;;5072103;28;20215;-76
2023/12/04 07:17:55;;;;;;;1.38;0.30;;;31.00;86.00;;;;;;5071795;28;20200;-76
2023/12/04 07:20:26;;;;;;;2.75;0.60;;;31.00;85.90;;;;;;5072098;28;20294;-77
2023/12/04 07:22:57;;;;;;;1.65;0.43;;;30.80;85.50;;;;;;5072840;28;20196;-76
2023/12/04 07:25:28;;;;;;;2.40;0.32;;;30.80;84.60;;;;;;5084842;28;20286;-76
2023/12/04 07:28:01;;;;;;;1.58;0.30;;;31.00;84.80;;;;;;5091079;28;20199;-75
2023/12/04 07:30:32;;;;;;;1.20;0.35;;;31.20;80.90;;;;;;5091425;28;20195;-76
2023/12/04 07:33:02;;;;;;;2.13;0.20;;;31.00;81.20;;;;;;5091398;28;20258;-75
2023/12/04 07:35:33;;;;;;;1.25;0.30;;;30.60;82.20;;;;;;5091415;28;20558;-76
2023/12/04 07:38:04;;;;;;;1.67;0.40;;;30.20;84.50;;;;;;5091468;28;20199;-76
2023/12/04 07:40:35;;;;;;;1.58;0.30;;;29.60;86.60;;;;;;5091192;28;20225;-75
2023/12/04 07:43:07;;;;;;;0.28;0.20;;;29.10;89.20;;;;;;5090147;28;20205;-76
2023/12/04 07:45:38;;;;;;;0.77;0.40;;;28.60;90.60;;;;;;5078699;28;20272;-76
2023/12/04 07:48:09;;;;;;;0.90;0.20;;;28.00;91.80;;;;;;5070897;28;20226;-76
2023/12/04 07:50:40;;;;;;;0.65;0.40;;;27.60;93.30;;;;;;5070237;28;20200;-75
2023/12/04 07:53:13;;;;;;;2.58;0.40;;;27.40;94.40;;;;;;5070761;28;20206;-76
2023/12/04 07:55:46;;;;;;;0.68;0.30;;;27.10;95.80;;;;;;5070462;28;20274;-76
2023/12/04 07:58:19;;;;;;;2.95;0.40;;;26.90;96.50;;;;;;5071157;28;20203;-76
2023/12/04 08:00:50;;;;;;;1.58;0.38;;;26.70;97.30;;;;;;5071047;28;20199;-77
2023/12/04 08:03:21;;;;;;;2.10;0.38;;;26.50;98.30;;;;;;5071231;28;20670;-77
2023/12/04 08:05:52;;;;;;;2.55;0.30;;;26.20;99.90;;;;;;5076962;28;20637;-77
2023/12/04 08:08:23;;;;;;;1.30;0.35;;;26.00;99.90;;;;;;5075782;28;20202;-76
2023/12/04 08:10:54;;;;;;;1.33;0.60;;;25.60;99.90;;;;;;5072138;28;20206;-77
2023/12/04 08:13:26;;;;;;;3.33;0.70;;;25.50;99.90;;;;;;5070856;28;20202;-77
2023/12/04 08:15:57;;;;;;;0.82;0.30;;;25.20;99.90;;;;;;5071113;28;20200;-77
2023/12/04 08:18:28;;;;;;;2.25;0.52;;;25.10;99.90;;;;;;5070407;28;20196;-77
2023/12/04 08:20:59;;;;;;;3.05;0.45;;;24.90;99.90;;;;;;5070491;28;20195;-77
2023/12/04 08:23:29;;;;;;;2.60;0.57;;;24.80;99.90;;;;;;5070277;28;20282;-77
2023/12/04 08:26:00;;;;;;;2.28;0.50;;;24.70;99.90;;;;;;5070321;28;20666;-77
2023/12/04 08:28:33;;;;;;;1.15;0.30;;;24.50;99.90;;;;;;5070805;28;20218;-77
2023/12/04 08:31:08;;;;;;;1.83;0.40;;;24.30;99.90;;;;;;5069944;28;20200;-77
2023/12/04 08:33:39;;;;;;;3.20;0.75;;;24.30;99.90;;;;;;5070768;28;20278;-77
2023/12/04 08:36:11;;;;;;;3.38;0.45;;;24.30;99.90;;;;;;5070147;28;20204;-77
2023/12/04 08:38:42;;;;;;;1.50;0.45;;;24.30;99.90;;;;;;5069442;28;20691;-77
2023/12/04 08:41:12;;;;;;;1.73;0.52;;;24.20;99.90;;;;;;5069919;28;20215;-77
2023/12/04 08:43:45;;;;;;;1.45;0.60;;;24.10;99.90;;;;;;5071563;28;20200;-77
2023/12/04 08:46:17;;;;;;;1.02;0.30;;;24.00;99.90;;;;;;5070184;28;20602;-77
2023/12/04 08:48:47;;;;;;;1.85;0.40;;;23.90;99.90;;;;;;5069903;28;20231;-77
2023/12/04 08:51:21;;;;;;;3.33;0.70;;;23.90;99.90;;;;;;5089012;28;20699;-77
2023/12/04 08:53:52;;;;;;;1.95;0.65;;;23.80;99.90;;;;;;5090744;28;20209;-76
2023/12/04 08:56:23;;;;;;;1.67;0.60;;;23.80;99.90;;;;;;5079860;28;20192;-76
2023/12/04 08:58:55;;;;;;;2.03;0.60;;;23.70;99.90;;;;;;5070512;28;20196;-76
2023/12/04 09:01:26;;;;;;;0.93;0.50;;;23.70;99.90;;;;;;5069865;28;20737;-76
2023/12/04 09:03:58;;;;;;;3.03;0.38;;;23.60;99.90;;;;;;5070252;28;20183;-76
2023/12/04 09:06:28;;;;;;;1.42;0.40;;;23.70;99.90;;;;;;5070228;28;20195;-76
2023/12/04 09:08:59;;;;;;;1.67;0.40;;;23.50;99.90;;;;;;5069818;28;20196;-76
2023/12/04 09:11:30;;;;;;;2.70;0.70;;;23.50;99.90;;;;;;5069920;28;20315;-76
2023/12/04 09:14:03;;;;;;;2.00;0.45;;;23.40;99.90;;;;;;5070210;28;20249;-77
2023/12/04 09:16:33;;;;;;;3.90;0.70;;;23.50;99.90;;;;;;5069847;28;20196;-76
2023/12/04 09:19:04;;;;;;;2.13;0.60;;;23.50;99.90;;;;;;5071694;28;20231;-76
2023/12/04 09:21:35;;;;;;;0.80;0.22;;;23.60;99.90;;;;;;5074693;28;20232;-76
2023/12/04 09:24:06;;;;;;;1.20;0.50;;;23.60;99.90;;;;;;5077451;28;20213;-76
2023/12/04 09:26:37;;;;;;;2.05;0.60;;;23.60;99.90;;;;;;5071391;28;20207;-76
2023/12/04 09:29:09;;;;;;;1.70;0.38;;;23.50;99.90;;;;;;5070113;28;20203;-76
2023/12/04 09:31:40;;;;;;;1.90;0.40;;;23.60;99.90;;;;;;5069707;28;21204;-77
2023/12/04 09:34:11;;;;;;;1.27;0.40;;;23.60;99.90;;;;;;5069783;28;20231;-77
2023/12/04 09:36:42;;;;;;;3.22;0.63;;;23.50;99.90;;;;;;5069946;28;20278;-77
2023/12/04 09:39:13;;;;;;;1.50;0.60;;;23.50;99.90;;;;;;5069900;28;20206;-76
2023/12/04 09:41:46;;;;;;;3.40;0.52;;;23.50;99.90;;;;;;5070352;28;20203;-77
2023/12/04 09:44:19;;;;;;;1.48;0.43;;;23.40;99.90;;;;;;5069751;28;20196;-76
2023/12/04 09:46:51;;;;;;;2.83;0.55;;;23.40;99.90;;;;;;5069567;28;20228;-77
2023/12/04 09:49:23;;;;;;;2.30;0.47;;;23.30;99.90;;;;;;5070519;28;20202;-76
2023/12/04 09:51:54;;;;;;;2.75;0.60;;;23.30;99.90;;;;;;5073576;28;20603;-76
2023/12/04 09:54:25;;;;;;;2.72;0.65;;;23.20;99.90;;;;;;5073487;28;20210;-76
2023/12/04 09:56:56;;;;;;;1.83;0.40;;;23.30;99.90;;;;;;5073791;28;20293;-76
2023/12/04 09:59:35;;;;;;;4.32;0.43;;;23.20;99.90;;;;;;5069860;28;20557;-76
2023/12/04 10:02:09;;;;;;;3.40;0.57;;;23.20;99.90;;;;;;5073778;28;20249;-76
2023/12/04 10:04:40;;;;;;;1.30;0.50;;;23.20;99.90;;;;;;5075741;28;20206;-76
2023/12/04 10:07:11;;;;;;;0.68;0.38;;;23.20;99.90;;;;;;5073806;28;20196;-76
2023/12/04 10:09:42;;;;;;;1.95;0.47;;;23.20;99.90;;;;;;5073271;28;20605;-75
2023/12/04 10:12:13;;;;;;;1.38;0.43;;;23.20;99.90;;;;;;5073502;28;20633;-75
2023/12/04 10:14:49;;;;;;;4.28;0.63;;;23.10;99.90;;;;;;5073763;28;20279;-76
2023/12/04 10:17:20;;;;;;;1.77;0.38;;;23.10;99.90;;;;;;5073069;28;20673;-77
2023/12/04 10:20:17;;;;;;;1.48;0.40;;;23.00;99.90;;;;;;5073308;28;20200;-76
2023/12/04 10:23:00;;;;;;;2.42;0.50;;;23.00;99.90;;;;;;5073247;28;20747;-76
2023/12/04 10:25:33;;;;;;;1.65;0.68;;;23.00;99.90;;;;;;5072925;28;20199;-76
2023/12/04 10:28:12;;;;;;;1.75;0.40;;;23.00;99.90;;;;;;5073300;28;20670;-77
2023/12/04 10:30:48;;;;;;;2.67;0.40;;;23.00;99.90;;;;;;5073330;28;20536;-77
2023/12/04 10:33:21;;;;;;;2.30;0.55;;;22.90;99.90;;;;;;5093746;28;20646;-76
2023/12/04 10:35:53;;;;;;;2.92;0.43;;;23.00;99.90;;;;;;5094153;28;20221;-75
2023/12/04 10:38:24;;;;;;;1.30;0.40;;;22.90;99.90;;;;;;5087442;28;20208;-75
2023/12/04 10:40:55;;;;;;;2.78;0.60;;;23.00;99.90;;;;;;5074246;28;20216;-75
2023/12/04 10:43:31;;;;;;;1.42;0.30;;;23.00;99.90;;;;;;5093337;28;20220;-76
2023/12/04 10:46:05;;;;;;;1.33;0.50;;;23.10;99.90;;;;;;5094350;28;20215;-77
2023/12/04 10:48:37;;;;;;;2.25;0.30;;;23.10;99.90;;;;;;5090055;28;20286;-75
2023/12/04 10:51:09;;;;;;;1.92;0.30;;;23.00;99.90;;;;;;5092994;28;20207;-75
2023/12/04 10:53:42;;;;;;;3.95;0.57;;;23.00;99.90;;;;;;5092422;28;20276;-75
2023/12/04 10:56:18;;;;;;;2.17;0.40;;;23.10;99.90;;;;;;5083128;28;20673;-75
2023/12/04 10:58:53;;;;;;;1.40;0.30;;;23.10;99.90;;;;;;5072274;28;20191;-75
2023/12/04 11:01:27;;;;;;;2.67;0.60;;;23.10;99.90;;;;;;5071654;28;20559;-75
2023/12/04 11:04:02;;;;;;;1.90;0.40;;;23.00;99.90;;;;;;5072081;28;20229;-75
2023/12/04 11:06:33;;;;;;;2.75;0.63;;;23.10;99.90;;;;;;5072735;28;20642;-75
2023/12/04 11:09:08;;;;;;;2.22;0.43;;;23.00;99.90;;;;;;5071901;28;20228;-75
2023/12/04 11:11:43;;;;;;;1.05;0.20;;;22.90;99.90;;;;;;5072038;28;20227;-75
2023/12/04 11:14:18;;;;;;;1.50;0.32;;;22.90;99.90;;;;;;5072060;28;20207;-75
2023/12/04 11:16:56;;;;;;;2.60;0.40;;;23.00;99.90;;;;;;5072036;28;20597;-74
2023/12/04 11:19:31;;;;;;;2.05;0.40;;;22.90;99.90;;;;;;5071759;28;20562;-76
2023/12/04 11:22:03;;;;;;;2.13;0.40;;;22.90;99.90;;;;;;5072403;28;20207;-75
2023/12/04 11:24:34;;;;;;;1.77;0.40;;;23.00;99.90;;;;;;5073296;28;20307;-75
2023/12/04 11:27:06;;;;;;;2.17;0.43;;;22.90;99.90;;;;;;5072144;28;20196;-75
2023/12/04 11:29:38;;;;;;;2.38;0.40;;;23.00;99.90;;;;;;5072393;28;20196;-75
2023/12/04 11:32:15;;;;;;;1.85;0.40;;;22.90;99.90;;;;;;5077209;28;20223;-75
2023/12/04 11:34:52;;;;;;;0.88;0.32;;;22.90;99.90;;;;;;5071535;28;20279;-76
2023/12/04 11:37:24;;;;;;;2.17;0.40;;;22.90;99.90;;;;;;5071568;28;20203;-76
2023/12/04 11:39:56;;;;;;;0.82;0.30;;;22.90;99.90;;;;;;5072288;28;20211;-76
2023/12/04 11:42:29;;;;;;;2.70;0.57;;;22.90;99.90;;;;;;5071492;28;20258;-76
2023/12/04 11:45:01;;;;;;;2.67;0.50;;;22.90;99.90;;;;;;5061440;28;20236;-76
2023/12/04 11:47:50;;;;;;;1.98;0.30;;;22.80;99.90;;;;;;5051109;28;20203;-76
2023/12/04 11:50:22;;;;;;;2.17;0.40;;;22.80;99.90;;;;;;5050717;28;20201;-76
2023/12/04 11:52:53;;;;;;;1.77;0.30;;;22.80;99.90;;;;;;5051386;28;20232;-75
2023/12/04 11:55:25;;;;;;;2.00;0.40;;;22.80;99.90;;;;;;5051716;28;20201;-75
2023/12/04 11:57:58;;;;;;;1.70;0.73;;;22.80;99.90;;;;;;5070446;28;20204;-76
2023/12/04 12:00:29;;;;;;;2.85;0.55;;;22.80;99.90;;;;;;5072081;28;20718;-75
2023/12/04 12:03:09;;;;;;;1.55;0.40;;;22.80;99.90;;;;;;5071213;28;20206;-75
2023/12/04 12:05:40;;;;;;;2.35;0.50;;;22.80;99.90;;;;;;5070559;28;20196;-75
2023/12/04 12:08:11;;;;;;;1.10;0.38;;;22.80;99.90;;;;;;5070778;28;20191;-75
2023/12/04 12:10:42;;;;;;;1.15;0.40;;;22.70;99.90;;;;;;5070743;28;20199;-75
2023/12/04 12:13:16;;;;;;;1.88;0.50;;;22.70;99.90;;;;;;5071092;28;20231;-75
2023/12/04 12:15:50;;;;;;;1.08;0.30;;;22.70;99.90;;;;;;5070710;28;20202;-75
2023/12/04 12:18:25;;;;;;;2.20;0.40;;;22.70;99.90;;;;;;5070717;28;20696;-75
2023/12/04 12:20:58;;;;;;;2.42;0.57;;;22.70;99.90;;;;;;5070918;28;20673;-75
2023/12/04 12:23:30;;;;;;;1.13;0.40;;;22.70;99.90;;;;;;5070639;28;20200;-75
2023/12/04 12:26:01;;;;;;;1.08;0.40;;;22.60;99.90;;;;;;5070653;28;20192;-75
2023/12/04 12:28:32;;;;;;;2.08;0.35;;;22.60;99.90;;;;;;5070391;28;20202;-75
2023/12/04 12:31:06;;;;;;;1.17;0.30;;;22.60;99.90;;;;;;5071182;28;20211;-75
2023/12/04 12:33:38;;;;;;;1.23;0.40;;;22.60;99.90;;;;;;5070137;28;20223;-75
2023/12/04 12:36:10;;;;;;;3.10;0.50;;;22.50;99.90;;;;;;5070613;28;20206;-75
2023/12/04 12:38:41;;;;;;;1.17;0.40;;;22.60;99.90;;;;;;5070324;28;20211;-75
2023/12/04 12:41:12;;;;;;;2.17;0.50;;;22.50;99.90;;;;;;5070669;28;20200;-75
2023/12/04 12:43:43;;;;;;;1.05;0.40;;;22.50;99.90;;;;;;5070755;28;20216;-77
2023/12/04 12:46:14;;;;;;;1.08;0.32;;;22.50;99.90;;;;;;5082682;28;20963;-76
2023/12/04 12:48:47;;;;;;;2.47;0.35;;;22.50;99.90;;;;;;5070716;28;20211;-76
2023/12/04 12:51:18;;;;;;;1.90;0.50;;;22.40;99.90;;;;;;5070135;28;20569;-76
2023/12/04 12:53:50;;;;;;;0.90;0.20;;;22.40;99.90;;;;;;5070485;28;20509;-76
2023/12/04 12:56:21;;;;;;;3.45;0.45;;;22.40;99.90;;;;;;5060455;28;20195;-76
2023/12/04 12:58:52;;;;;;;1.88;0.40;;;22.40;99.90;;;;;;5070411;28;20257;-76
2023/12/04 13:01:26;;;;;;;1.20;0.60;;;22.40;99.90;;;;;;5070300;28;20192;-76
2023/12/04 13:04:00;;;;;;;2.08;0.40;;;22.40;99.90;;;;;;5070817;28;20203;-76
2023/12/04 13:06:31;;;;;;;1.83;0.50;;;22.40;99.90;;;;;;5050561;28;20196;-75
2023/12/04 13:09:06;;;;;;;3.40;0.57;;;22.40;99.90;;;;;;5053996;28;20193;-76
2023/12/04 13:11:37;;;;;;;1.98;0.50;;;22.30;99.90;;;;;;5072719;28;20303;-76